createdAt,value
2022-12-25T00:00:20.344Z,-94
2022-12-25T00:03:30.109Z,-92
2022-12-25T00:06:38.001Z,-93
2022-12-25T00:09:44.615Z,-92
2022-12-25T00:12:50.335Z,-92
2022-12-25T00:15:57.126Z,-92
2022-12-25T00:19:05.488Z,-92
2022-12-25T00:22:12.018Z,-93
2022-12-25T00:25:17.892Z,-90
2022-12-25T00:28:26.937Z,-92
2022-12-25T00:31:32.781Z,-92
2022-12-25T00:34:42.068Z,-92
2022-12-25T00:37:47.714Z,-92
2022-12-25T00:40:54.847Z,-94
2022-12-25T00:44:00.500Z,-92
2022-12-25T00:47:07.541Z,-92
2022-12-25T00:50:16.025Z,-92
2022-12-25T00:53:22.463Z,-93
2022-12-25T00:56:28.441Z,-91
2022-12-25T00:59:35.596Z,-93
2022-12-25T01:02:43.171Z,-92
2022-12-25T01:06:02.071Z,-92
2022-12-25T01:09:20.454Z,-92
2022-12-25T01:12:27.630Z,-91
2022-12-25T01:15:33.236Z,-92
2022-12-25T01:18:40.675Z,-92
2022-12-25T01:21:48.966Z,-92
2022-12-25T01:24:55.482Z,-92
2022-12-25T01:28:02.930Z,-91
2022-12-25T01:31:14.657Z,-93
2022-12-25T01:34:20.425Z,-94
2022-12-25T01:37:29.882Z,-92
2022-12-25T01:40:37.716Z,-94
2022-12-25T01:44:06.560Z,-94
2022-12-25T01:47:12.185Z,-92
2022-12-25T01:50:19.615Z,-92
2022-12-25T01:53:29.686Z,-92
2022-12-25T01:56:40.738Z,-92
2022-12-25T01:59:47.920Z,-93
2022-12-25T02:02:54.634Z,-93
2022-12-25T02:06:01.858Z,-93
2022-12-25T02:09:11.322Z,-93
2022-12-25T02:12:26.067Z,-94
2022-12-25T02:15:48.805Z,-93
2022-12-25T02:19:06.272Z,-94
2022-12-25T02:22:37.870Z,-92
2022-12-25T02:26:11.185Z,-92
2022-12-25T02:29:32.032Z,-93
2022-12-25T02:32:47.995Z,-95
2022-12-25T02:35:59.944Z,-93
2022-12-25T02:39:34.791Z,-94
2022-12-25T02:43:03.255Z,-92
2022-12-25T02:46:32.549Z,-92
2022-12-25T02:49:54.358Z,-94
2022-12-25T02:53:18.555Z,-92
2022-12-25T02:56:43.295Z,-92
2022-12-25T03:00:09.768Z,-92
2022-12-25T03:03:33.814Z,-93
2022-12-25T03:06:48.758Z,-92
2022-12-25T03:10:14.915Z,-92
2022-12-25T03:13:27.363Z,-92
2022-12-25T03:16:46.819Z,-91
2022-12-25T03:20:08.643Z,-93
2022-12-25T03:23:34.472Z,-92
2022-12-25T03:26:54.092Z,-92
2022-12-25T03:30:20.777Z,-93
2022-12-25T03:34:09.342Z,-92
2022-12-25T03:37:57.772Z,-91
2022-12-25T03:41:34.957Z,-92
2022-12-25T03:45:10.751Z,-93
2022-12-25T03:48:33.450Z,-92
2022-12-25T03:51:58.380Z,-93
2022-12-25T03:55:27.078Z,-92
2022-12-25T03:58:45.234Z,-92
2022-12-25T04:02:05.851Z,-93
2022-12-25T04:05:24.362Z,-91
2022-12-25T04:08:43.493Z,-92
2022-12-25T04:12:07.466Z,-89
2022-12-25T04:15:27.145Z,-91
2022-12-25T04:18:45.292Z,-91
2022-12-25T04:22:15.903Z,-92
2022-12-25T04:25:33.958Z,-90
2022-12-25T04:28:55.399Z,-92
2022-12-25T04:32:28.593Z,-92
2022-12-25T04:35:47.360Z,-91
2022-12-25T04:38:53.186Z,-93
2022-12-25T04:42:01.183Z,-93
2022-12-25T04:45:14.377Z,-93
2022-12-25T04:48:20.911Z,-92
2022-12-25T04:51:29.636Z,-93
2022-12-25T04:54:36.309Z,-92
2022-12-25T04:57:42.751Z,-91
2022-12-25T05:00:51.882Z,-93
2022-12-25T05:03:57.791Z,-92
2022-12-25T05:07:04.422Z,-92
2022-12-25T05:10:11.921Z,-93
2022-12-25T05:13:18.600Z,-93
2022-12-25T05:16:27.617Z,-92
2022-12-25T05:19:34.315Z,-93
2022-12-25T05:22:40.006Z,-93
2022-12-25T05:25:46.351Z,-92
2022-12-25T05:28:52.725Z,-91
2022-12-25T05:32:02.230Z,-92
2022-12-25T05:35:09.457Z,-93
2022-12-25T05:38:16.016Z,-93
2022-12-25T05:41:21.777Z,-91
2022-12-25T05:44:28.400Z,-91
2022-12-25T05:47:36.759Z,-90
2022-12-25T05:50:43.177Z,-90
2022-12-25T05:53:48.812Z,-88
2022-12-25T05:56:55.306Z,-90
2022-12-25T06:00:01.831Z,-88
2022-12-25T06:03:11.014Z,-91
2022-12-25T06:06:17.845Z,-90
2022-12-25T06:09:24.245Z,-89
2022-12-25T06:12:30.053Z,-90
2022-12-25T06:15:36.613Z,-91
2022-12-25T06:18:52.640Z,-87
2022-12-25T06:22:01.807Z,-89
2022-12-25T06:25:17.488Z,-89
2022-12-25T06:28:25.431Z,-88
2022-12-25T06:31:31.351Z,-85
2022-12-25T06:34:40.632Z,-89
2022-12-25T06:37:46.452Z,-85
2022-12-25T06:40:53.042Z,-87
2022-12-25T06:44:03.471Z,-85
2022-12-25T06:47:10.164Z,-88
2022-12-25T06:50:21.105Z,-88
2022-12-25T06:53:28.203Z,-90
2022-12-25T06:56:37.795Z,-88
2022-12-25T06:59:46.392Z,-90
2022-12-25T07:02:54.606Z,-88
2022-12-25T07:06:03.828Z,-86
2022-12-25T07:09:09.564Z,-85
2022-12-25T07:12:22.026Z,-89
2022-12-25T07:15:27.750Z,-86
2022-12-25T07:18:35.731Z,-89
2022-12-25T07:21:43.995Z,-85
2022-12-25T07:24:50.540Z,-91
2022-12-25T07:27:56.198Z,-88
2022-12-25T07:31:08.753Z,-89
2022-12-25T07:34:14.402Z,-90
2022-12-25T07:37:23.342Z,-91
2022-12-25T07:40:28.993Z,-91
2022-12-25T07:43:35.475Z,-89
2022-12-25T07:46:41.143Z,-85
2022-12-25T07:49:47.608Z,-91
2022-12-25T07:52:56.080Z,-90
2022-12-25T07:56:06.543Z,-89
2022-12-25T07:59:12.262Z,-91
2022-12-25T08:02:18.695Z,-89
2022-12-25T08:05:24.455Z,-89
2022-12-25T08:08:34.469Z,-89
2022-12-25T08:11:41.766Z,-89
2022-12-25T08:14:48.290Z,-90
2022-12-25T08:17:53.975Z,-88
2022-12-25T08:21:05.655Z,-87
2022-12-25T08:24:13.965Z,-87
2022-12-25T08:27:20.351Z,-89
2022-12-25T08:30:26.547Z,-88
2022-12-25T08:33:33.044Z,-87
2022-12-25T08:36:38.948Z,-86
2022-12-25T08:39:48.098Z,-83
2022-12-25T08:42:53.939Z,-83
2022-12-25T08:46:00.937Z,-84
2022-12-25T08:49:06.692Z,-82
2022-12-25T08:52:13.178Z,-84
2022-12-25T08:55:21.626Z,-86
2022-12-25T08:58:28.638Z,-89
2022-12-25T09:01:34.591Z,-82
2022-12-25T09:04:41.561Z,-81
2022-12-25T09:07:47.497Z,-83
2022-12-25T09:10:56.765Z,-86
2022-12-25T09:14:03.679Z,-88
2022-12-25T09:17:10.369Z,-81
2022-12-25T09:20:16.153Z,-83
2022-12-25T09:23:22.633Z,-86
2022-12-25T09:26:30.911Z,-87
2022-12-25T09:29:39.087Z,-85
2022-12-25T09:32:45.078Z,-83
2022-12-25T09:35:59.250Z,-89
2022-12-25T09:39:05.397Z,-82
2022-12-25T09:42:22.886Z,-82
2022-12-25T09:45:36.032Z,-85
2022-12-25T09:48:51.229Z,-87
2022-12-25T09:52:08.076Z,-86
2022-12-25T09:55:20.615Z,-85
2022-12-25T09:58:33.279Z,-83
2022-12-25T10:02:05.919Z,-87
2022-12-25T10:06:09.273Z,-83
2022-12-25T10:09:51.146Z,-88
2022-12-25T10:13:14.622Z,-87
2022-12-25T10:16:37.779Z,-88
2022-12-25T10:19:58.336Z,-89
2022-12-25T10:23:16.993Z,-87
2022-12-25T10:26:27.360Z,-87
2022-12-25T10:29:38.695Z,-86
2022-12-25T10:32:49.460Z,-86
2022-12-25T10:35:56.067Z,-85
2022-12-25T10:39:02.187Z,-88
2022-12-25T10:42:40.328Z,-85
2022-12-25T10:45:49.142Z,-87
2022-12-25T10:49:05.875Z,-86
2022-12-25T10:52:24.424Z,-87
2022-12-25T10:55:30.953Z,-84
2022-12-25T10:58:37.622Z,-84
2022-12-25T11:01:44.448Z,-89
2022-12-25T11:05:02.584Z,-87
2022-12-25T11:08:24.489Z,-85
2022-12-25T11:11:33.591Z,-83
2022-12-25T11:14:40.794Z,-84
2022-12-25T11:17:52.615Z,-83
2022-12-25T11:21:04.186Z,-83
2022-12-25T11:24:22.469Z,-84
2022-12-25T11:27:33.669Z,-83
2022-12-25T11:30:43.092Z,-83
2022-12-25T11:34:00.312Z,-86
2022-12-25T11:37:20.540Z,-84
2022-12-25T11:40:37.427Z,-84
2022-12-25T11:43:56.568Z,-85
2022-12-25T11:47:16.527Z,-84
2022-12-25T11:50:33.726Z,-85
2022-12-25T11:53:54.809Z,-85
2022-12-25T11:57:09.382Z,-83
2022-12-25T12:00:19.869Z,-84
2022-12-25T12:03:34.054Z,-85
2022-12-25T12:06:59.167Z,-84
2022-12-25T12:10:21.961Z,-84
2022-12-25T12:13:53.615Z,-84
2022-12-25T12:16:59.548Z,-83
2022-12-25T12:20:16.346Z,-83
2022-12-25T12:23:22.211Z,-85
2022-12-25T12:26:38.001Z,-84
2022-12-25T12:29:51.503Z,-84
2022-12-25T12:33:02.889Z,-86
2022-12-25T12:36:15.502Z,-83
2022-12-25T12:39:29.711Z,-82
2022-12-25T12:42:50.763Z,-85
2022-12-25T12:46:04.829Z,-84
2022-12-25T12:49:23.542Z,-82
2022-12-25T12:52:37.835Z,-85
2022-12-25T12:55:43.678Z,-82
2022-12-25T12:58:53.976Z,-86
2022-12-25T13:02:29.245Z,-85
2022-12-25T13:05:46.295Z,-84
2022-12-25T13:09:09.373Z,-86
2022-12-25T13:12:19.878Z,-87
2022-12-25T13:15:33.465Z,-87
2022-12-25T13:18:44.859Z,-83
2022-12-25T13:21:58.518Z,-84
2022-12-25T13:25:10.348Z,-85
2022-12-25T13:28:17.886Z,-81
2022-12-25T13:31:30.932Z,-83
2022-12-25T13:34:42.387Z,-81
2022-12-25T13:37:51.559Z,-82
2022-12-25T13:41:13.570Z,-84
2022-12-25T13:44:26.552Z,-82
2022-12-25T13:47:41.521Z,-82
2022-12-25T13:50:48.982Z,-84
2022-12-25T13:54:06.557Z,-85
2022-12-25T13:57:16.047Z,-83
2022-12-25T14:00:27.665Z,-83
2022-12-25T14:03:42.908Z,-82
2022-12-25T14:06:49.131Z,-82
2022-12-25T14:10:03.352Z,-84
2022-12-25T14:13:17.458Z,-86
2022-12-25T14:16:26.258Z,-85
2022-12-25T14:19:39.382Z,-83
2022-12-25T14:22:55.136Z,-83
2022-12-25T14:26:01.062Z,-86
2022-12-25T14:29:20.467Z,-83
2022-12-25T14:32:34.247Z,-82
2022-12-25T14:35:46.166Z,-84
2022-12-25T14:39:04.205Z,-86
2022-12-25T14:42:23.266Z,-87
2022-12-25T14:45:35.566Z,-85
2022-12-25T14:48:42.659Z,-85
2022-12-25T14:51:51.031Z,-83
2022-12-25T14:55:03.837Z,-85
2022-12-25T14:58:21.477Z,-83
2022-12-25T15:01:35.722Z,-87
2022-12-25T15:04:45.858Z,-85
2022-12-25T15:08:26.843Z,-84
2022-12-25T15:11:33.432Z,-85
2022-12-25T15:14:40.522Z,-87
2022-12-25T15:17:46.572Z,-82
2022-12-25T15:20:58.761Z,-86
2022-12-25T15:24:08.094Z,-86
2022-12-25T15:27:21.564Z,-83
2022-12-25T15:30:30.584Z,-83
2022-12-25T15:33:42.220Z,-82
2022-12-25T15:36:50.112Z,-84
2022-12-25T15:39:59.588Z,-85
2022-12-25T15:43:11.365Z,-82
2022-12-25T15:46:27.465Z,-84
2022-12-25T15:49:33.137Z,-85
2022-12-25T15:52:39.828Z,-84
2022-12-25T15:55:48.125Z,-84
2022-12-25T15:58:55.219Z,-81
2022-12-25T16:02:04.553Z,-80
2022-12-25T16:05:12.244Z,-80
2022-12-25T16:08:17.938Z,-80
2022-12-25T16:11:27.326Z,-84
2022-12-25T16:14:33.398Z,-81
2022-12-25T16:17:39.980Z,-80
2022-12-25T16:20:45.819Z,-81
2022-12-25T16:23:52.804Z,-81
2022-12-25T16:27:01.104Z,-81
2022-12-25T16:30:09.534Z,-82
2022-12-25T16:33:15.486Z,-80
2022-12-25T16:36:26.876Z,-81
2022-12-25T16:39:33.083Z,-80
2022-12-25T16:42:42.721Z,-81
2022-12-25T16:45:48.437Z,-81
2022-12-25T16:48:57.402Z,-80
2022-12-25T16:52:03.990Z,-80
2022-12-25T16:55:11.684Z,-80
2022-12-25T16:58:21.079Z,-80
2022-12-25T17:01:28.421Z,-83
2022-12-25T17:04:34.579Z,-83
2022-12-25T17:07:41.200Z,-80
2022-12-25T17:10:46.792Z,-79
2022-12-25T17:13:56.381Z,-80
2022-12-25T17:17:02.122Z,-83
2022-12-25T17:20:11.051Z,-81
2022-12-25T17:23:16.768Z,-81
2022-12-25T17:26:24.369Z,-80
2022-12-25T17:29:32.980Z,-79
2022-12-25T17:32:39.768Z,-81
2022-12-25T17:35:45.565Z,-81
2022-12-25T17:38:52.924Z,-80
2022-12-25T17:41:58.754Z,-79
2022-12-25T17:45:09.316Z,-79
2022-12-25T17:48:14.953Z,-81
2022-12-25T17:51:24.699Z,-80
2022-12-25T17:54:30.560Z,-81
2022-12-25T17:57:37.329Z,-80
2022-12-25T18:00:45.706Z,-79
2022-12-25T18:03:53.018Z,-82
2022-12-25T18:06:58.731Z,-80
2022-12-25T18:10:05.479Z,-81
2022-12-25T18:13:11.560Z,-80
2022-12-25T18:16:24.063Z,-82
2022-12-25T18:19:29.831Z,-80
2022-12-25T18:22:37.417Z,-81
2022-12-25T18:25:45.728Z,-82
2022-12-25T18:28:53.287Z,-82
2022-12-25T18:32:01.785Z,-81
2022-12-25T18:35:09.596Z,-80
2022-12-25T18:38:16.997Z,-81
2022-12-25T18:41:27.702Z,-80
2022-12-25T18:44:33.988Z,-82
2022-12-25T18:47:43.305Z,-80
2022-12-25T18:50:49.005Z,-85
2022-12-25T18:53:56.540Z,-81
2022-12-25T18:57:07.146Z,-80
2022-12-25T19:00:15.597Z,-82
2022-12-25T19:03:24.778Z,-81
2022-12-25T19:06:33.503Z,-79
2022-12-25T19:09:40.381Z,-79
2022-12-25T19:12:47.430Z,-80
2022-12-25T19:15:53.492Z,-80
2022-12-25T19:19:06.576Z,-80
2022-12-25T19:22:14.002Z,-79
2022-12-25T19:25:21.507Z,-82
2022-12-25T19:28:27.906Z,-83
2022-12-25T19:31:34.848Z,-79
2022-12-25T19:34:43.367Z,-81
2022-12-25T19:37:51.749Z,-80
2022-12-25T19:41:03.821Z,-83
2022-12-25T19:44:14.422Z,-80
2022-12-25T19:47:20.129Z,-80
2022-12-25T19:50:37.203Z,-80
2022-12-25T19:53:45.130Z,-80
2022-12-25T19:56:52.851Z,-80
2022-12-25T19:59:58.909Z,-80
2022-12-25T20:03:05.695Z,-79
2022-12-25T20:06:22.151Z,-85
2022-12-25T20:09:28.754Z,-80
2022-12-25T20:12:34.457Z,-79
2022-12-25T20:15:41.467Z,-82
2022-12-25T20:18:47.949Z,-83
2022-12-25T20:21:57.257Z,-79
2022-12-25T20:25:03.401Z,-81
2022-12-25T20:28:09.861Z,-79
2022-12-25T20:31:20.918Z,-80
2022-12-25T20:34:30.168Z,-80
2022-12-25T20:37:38.639Z,-80
2022-12-25T20:41:24.483Z,-80
2022-12-25T20:44:13.529Z,-80
2022-12-25T20:47:20.920Z,-80
2022-12-25T20:50:28.404Z,-80
2022-12-25T20:53:37.889Z,-80
2022-12-25T20:56:46.075Z,-86
2022-12-25T20:59:52.667Z,-82
2022-12-25T21:02:58.896Z,-82
2022-12-25T21:06:06.416Z,-81
2022-12-25T21:09:14.726Z,-81
2022-12-25T21:12:23.675Z,-80
2022-12-25T21:15:36.741Z,-81
2022-12-25T21:18:43.572Z,-79
2022-12-25T21:21:49.178Z,-82
2022-12-25T21:24:58.590Z,-81
2022-12-25T21:28:04.820Z,-80
2022-12-25T21:31:14.085Z,-80
2022-12-25T21:34:17.427Z,-80
2022-12-25T21:37:26.514Z,-81
2022-12-25T21:40:39.718Z,-82
2022-12-25T21:43:46.954Z,-80
2022-12-25T21:46:52.762Z,-82
2022-12-25T21:50:11.903Z,-79
2022-12-25T21:53:23.188Z,-81
2022-12-25T21:56:43.092Z,-80
2022-12-25T21:59:49.545Z,-81
2022-12-25T22:02:57.545Z,-81
2022-12-25T22:06:21.155Z,-83
2022-12-25T22:09:28.655Z,-81
2022-12-25T22:12:51.598Z,-80
2022-12-25T22:16:19.784Z,-80
2022-12-25T22:19:38.187Z,-81
2022-12-25T22:22:45.687Z,-82
2022-12-25T22:25:51.471Z,-87
2022-12-25T22:29:00.636Z,-84
2022-12-25T22:32:07.443Z,-84
2022-12-25T22:35:15.052Z,-83
2022-12-25T22:38:20.721Z,-86
2022-12-25T22:41:33.300Z,-84
2022-12-25T22:44:42.468Z,-81
2022-12-25T22:47:48.890Z,-84
2022-12-25T22:50:54.798Z,-88
2022-12-25T22:54:03.830Z,-86
2022-12-25T22:57:09.811Z,-84
2022-12-25T23:00:19.212Z,-87
2022-12-25T23:03:25.045Z,-87
2022-12-25T23:06:32.084Z,-86
2022-12-25T23:09:37.798Z,-83
2022-12-25T23:12:56.661Z,-82
2022-12-25T23:16:05.408Z,-84
2022-12-25T23:19:27.107Z,-82
2022-12-25T23:22:45.161Z,-85
2022-12-25T23:26:04.019Z,-82
2022-12-25T23:29:22.069Z,-82
2022-12-25T23:32:31.714Z,-84
2022-12-25T23:35:37.623Z,-87
2022-12-25T23:38:44.024Z,-85
2022-12-25T23:41:49.631Z,-82
2022-12-25T23:44:56.035Z,-84
2022-12-25T23:48:04.361Z,-88
2022-12-25T23:51:14.205Z,-88
2022-12-25T23:54:24.007Z,-88
2022-12-25T23:57:30.385Z,-86
